Time;durP1;ratioP1;P1;durP2;ratioP2;P2;SDS_P1;SDS_P2;PMS_P1;PMS_P2;Temp;Humidity;BMP_temperature;BMP_pressure;BME280_temperature;BME280_humidity;BME280_pressure;Samples;Min_cycle;Max_cycle;Signal;HPM_P1;HPM_P2
2023/04/16 00:01:10;;;;;;;;;;;10.10;99.90;;;;;;7335579;19;110691;-63
2023/04/16 00:03:37;;;;;;;;;;;10.10;99.90;;;;;;7339887;19;113960;-62
2023/04/16 00:06:06;;;;;;;;;;;10.10;99.90;;;;;;7336362;19;109228;-62
2023/04/16 00:08:34;;;;;;;;;;;10.20;99.90;;;;;;7339876;19;109296;-64
2023/04/16 00:11:01;;;;;;;;;;;10.00;99.90;;;;;;7345317;19;109219;-63
2023/04/16 00:13:28;;;;;;;;;;;10.00;99.90;;;;;;7338432;19;110306;-63
2023/04/16 00:15:55;;;;;;;;;;;10.00;99.90;;;;;;7337877;19;108513;-63
2023/04/16 00:18:22;;;;;;;;;;;10.00;99.90;;;;;;7339067;19;108744;-63
2023/04/16 00:20:50;;;;;;;;;;;10.00;99.90;;;;;;7340064;19;109543;-62
2023/04/16 00:23:17;;;;;;;;;;;10.10;99.90;;;;;;7339916;19;108808;-63
2023/04/16 00:25:44;;;;;;;;;;;10.00;99.90;;;;;;7338295;19;108844;-63
2023/04/16 00:28:11;;;;;;;;;;;10.10;99.90;;;;;;7337222;19;109613;-63
2023/04/16 00:30:38;;;;;;;;;;;10.00;99.90;;;;;;7334434;19;108895;-63
2023/04/16 00:33:05;;;;;;;;;;;10.00;99.90;;;;;;7343514;19;108444;-63
2023/04/16 00:35:33;;;;;;;;;;;10.00;99.90;;;;;;7336587;19;112247;-62
2023/04/16 00:38:00;;;;;;;;;;;10.00;99.90;;;;;;7336439;19;109005;-62
2023/04/16 00:40:29;;;;;;;;;;;10.10;99.90;;;;;;7337593;19;110390;-63
2023/04/16 00:42:56;;;;;;;;;;;10.10;99.90;;;;;;7337108;19;110117;-62
2023/04/16 00:45:24;;;;;;;;;;;10.10;99.90;;;;;;7335712;19;108812;-63
2023/04/16 00:47:51;;;;;;;;;;;10.10;99.90;;;;;;7337306;19;110372;-63
2023/04/16 00:50:18;;;;;;;;;;;10.00;99.90;;;;;;7335388;19;109290;-63
2023/04/16 00:52:48;;;;;;;;;;;10.00;99.90;;;;;;7336754;19;109460;-63
2023/04/16 00:55:17;;;;;;;;;;;10.00;99.90;;;;;;7343679;19;109491;-63
2023/04/16 00:57:44;;;;;;;;;;;10.00;99.90;;;;;;7336773;19;109096;-62
2023/04/16 01:00:12;;;;;;;;;;;10.00;99.90;;;;;;7336086;19;109503;-63
2023/04/16 01:02:39;;;;;;;;;;;10.00;99.90;;;;;;7333539;19;109957;-62
2023/04/16 01:05:07;;;;;;;;;;;10.00;99.90;;;;;;7337778;19;108706;-63
2023/04/16 01:07:34;;;;;;;;;;;10.00;99.90;;;;;;7335345;19;112869;-63
2023/04/16 01:10:01;;;;;;;;;;;10.00;99.90;;;;;;7338630;19;108582;-63
2023/04/16 01:12:29;;;;;;;;;;;10.00;99.90;;;;;;7335873;19;109469;-62
2023/04/16 01:14:56;;;;;;;;;;;10.00;99.90;;;;;;7336213;19;110558;-63
2023/04/16 01:17:23;;;;;;;;;;;10.00;99.90;;;;;;7344101;19;108523;-63
2023/04/16 01:19:50;;;;;;;;;;;10.00;99.90;;;;;;7334944;19;109701;-62
2023/04/16 01:22:17;;;;;;;;;;;10.00;99.90;;;;;;7339066;19;108667;-62
2023/04/16 01:24:45;;;;;;;;;;;10.00;99.90;;;;;;7332757;19;110157;-63
2023/04/16 01:27:12;;;;;;;;;;;10.00;99.90;;;;;;7335782;19;109570;-62
2023/04/16 01:29:39;;;;;;;;;;;9.90;99.90;;;;;;7338174;19;109530;-63
2023/04/16 01:32:06;;;;;;;;;;;9.90;99.90;;;;;;7334039;19;109493;-63
2023/04/16 01:34:33;;;;;;;;;;;9.90;99.90;;;;;;7335416;19;109905;-63
2023/04/16 01:37:00;;;;;;;;;;;10.00;99.90;;;;;;7339676;19;109428;-63
2023/04/16 01:39:27;;;;;;;;;;;9.90;99.90;;;;;;7336935;19;109233;-63
2023/04/16 01:41:54;;;;;;;;;;;9.90;99.90;;;;;;7337859;19;108442;-63
2023/04/16 01:44:22;;;;;;;;;;;9.90;99.90;;;;;;7338014;19;108710;-63
2023/04/16 01:46:49;;;;;;;;;;;9.90;99.90;;;;;;7326861;19;110617;-63
2023/04/16 01:49:16;;;;;;;;;;;9.90;99.90;;;;;;7335161;19;110010;-63
2023/04/16 01:51:43;;;;;;;;;;;9.90;99.90;;;;;;7334981;19;110112;-63
2023/04/16 01:54:10;;;;;;;;;;;10.00;99.90;;;;;;7334031;19;110151;-69
2023/04/16 01:56:37;;;;;;;;;;;10.00;99.90;;;;;;7336532;19;108564;-64
2023/04/16 01:59:04;;;;;;;;;;;10.00;99.90;;;;;;7337992;19;111412;-64
2023/04/16 02:01:31;;;;;;;;;;;10.00;99.90;;;;;;7335532;19;108892;-68
2023/04/16 02:03:58;;;;;;;;;;;10.00;99.90;;;;;;7336268;19;109305;-66
2023/04/16 02:06:26;;;;;;;;;;;10.00;99.90;;;;;;7335796;19;109818;-63
2023/04/16 02:08:53;;;;;;;;;;;9.90;99.90;;;;;;7335529;19;110204;-63
2023/04/16 02:11:20;;;;;;;;;;;10.00;99.90;;;;;;7332937;19;108951;-63
2023/04/16 02:13:47;;;;;;;;;;;10.00;99.90;;;;;;7335868;19;109513;-63
2023/04/16 02:16:14;;;;;;;;;;;10.00;99.90;;;;;;7335162;19;109921;-63
2023/04/16 02:18:41;;;;;;;;;;;10.00;99.90;;;;;;7336331;19;108325;-63
2023/04/16 02:21:08;;;;;;;;;;;10.00;99.90;;;;;;7341309;19;109826;-63
2023/04/16 02:23:36;;;;;;;;;;;10.10;99.90;;;;;;7333725;19;108925;-63
2023/04/16 02:26:03;;;;;;;;;;;10.10;99.90;;;;;;7336360;19;109146;-63
2023/04/16 02:28:30;;;;;;;;;;;10.10;99.90;;;;;;7335341;19;109017;-63
2023/04/16 02:30:58;;;;;;;;;;;10.10;99.90;;;;;;7336561;19;110735;-63
2023/04/16 02:33:25;;;;;;;;;;;10.10;99.90;;;;;;7330399;19;109520;-63
2023/04/16 02:35:52;;;;;;;;;;;10.20;99.90;;;;;;7336984;19;108392;-63
2023/04/16 02:38:19;;;;;;;;;;;10.10;99.90;;;;;;7331130;19;109398;-63
2023/04/16 02:40:46;;;;;;;;;;;10.10;99.90;;;;;;7334171;19;109383;-63
2023/04/16 02:43:13;;;;;;;;;;;10.10;99.90;;;;;;7333699;19;110152;-62
2023/04/16 02:45:40;;;;;;;;;;;10.10;99.90;;;;;;7333921;19;109464;-63
2023/04/16 02:48:08;;;;;;;;;;;10.10;99.90;;;;;;7336307;19;109638;-63
2023/04/16 02:50:35;;;;;;;;;;;10.10;99.90;;;;;;7333810;19;109668;-63
2023/04/16 02:53:03;;;;;;;;;;;10.10;99.90;;;;;;7333470;19;111064;-63
2023/04/16 02:55:30;;;;;;;;;;;10.10;99.90;;;;;;7336590;19;108951;-63
2023/04/16 02:57:57;;;;;;;;;;;10.10;99.90;;;;;;7335482;19;109509;-63
2023/04/16 03:00:24;;;;;;;;;;;10.00;99.90;;;;;;7329290;19;110087;-63
2023/04/16 03:02:51;;;;;;;;;;;10.00;99.90;;;;;;7334070;19;109637;-63
2023/04/16 03:05:19;;;;;;;;;;;10.10;99.90;;;;;;7338742;19;108770;-63
2023/04/16 03:07:46;;;;;;;;;;;10.10;99.90;;;;;;7329406;19;110311;-63
2023/04/16 03:10:13;;;;;;;;;;;10.10;99.90;;;;;;7338189;19;110473;-62
2023/04/16 03:12:40;;;;;;;;;;;10.10;99.90;;;;;;7331793;19;109250;-63
2023/04/16 03:15:07;;;;;;;;;;;10.20;99.90;;;;;;7332100;19;108631;-63
2023/04/16 03:17:35;;;;;;;;;;;10.10;99.90;;;;;;7332644;19;110346;-63
2023/04/16 03:20:06;;;;;;;;;;;10.20;99.90;;;;;;7331238;19;129578;-63
2023/04/16 03:22:33;;;;;;;;;;;10.20;99.90;;;;;;7333320;19;108692;-63
2023/04/16 03:25:00;;;;;;;;;;;10.10;99.90;;;;;;7335098;19;109561;-63
2023/04/16 03:27:27;;;;;;;;;;;10.10;99.90;;;;;;7335216;19;109321;-63
2023/04/16 03:29:54;;;;;;;;;;;10.00;99.90;;;;;;7331581;19;108813;-63
2023/04/16 03:32:21;;;;;;;;;;;10.00;99.90;;;;;;7331349;19;110236;-63
2023/04/16 03:34:48;;;;;;;;;;;10.00;99.90;;;;;;7333790;19;108506;-63
2023/04/16 03:37:15;;;;;;;;;;;10.00;99.90;;;;;;7334503;19;110161;-63
2023/04/16 03:39:42;;;;;;;;;;;10.00;99.90;;;;;;7331126;19;110037;-63
2023/04/16 03:42:10;;;;;;;;;;;10.00;99.90;;;;;;7331686;19;108662;-63
2023/04/16 03:44:38;;;;;;;;;;;10.00;99.90;;;;;;7331653;19;108659;-62
2023/04/16 03:47:05;;;;;;;;;;;10.00;99.90;;;;;;7336503;19;111156;-63
2023/04/16 03:49:32;;;;;;;;;;;9.90;99.90;;;;;;7332612;19;109070;-63
2023/04/16 03:51:59;;;;;;;;;;;9.90;99.90;;;;;;7332477;19;110362;-63
2023/04/16 03:54:26;;;;;;;;;;;9.90;99.90;;;;;;7333196;19;109727;-63
2023/04/16 03:56:53;;;;;;;;;;;9.90;99.90;;;;;;7332846;19;109683;-63
2023/04/16 03:59:20;;;;;;;;;;;9.90;99.90;;;;;;7330528;19;111556;-63
2023/04/16 04:01:47;;;;;;;;;;;9.80;99.90;;;;;;7333070;19;108698;-63
2023/04/16 04:04:15;;;;;;;;;;;9.90;99.90;;;;;;7329805;19;109011;-63
2023/04/16 04:06:43;;;;;;;;;;;9.90;99.90;;;;;;7332042;19;109052;-63
2023/04/16 04:09:10;;;;;;;;;;;10.00;99.90;;;;;;7336232;19;108827;-63
2023/04/16 04:11:37;;;;;;;;;;;10.00;99.90;;;;;;7330461;19;109438;-63
2023/04/16 04:14:04;;;;;;;;;;;10.00;99.90;;;;;;7332722;19;109714;-63
2023/04/16 04:16:31;;;;;;;;;;;10.00;99.90;;;;;;7331070;19;109557;-63
2023/04/16 04:18:59;;;;;;;;;;;9.80;99.90;;;;;;7331337;19;109176;-63
2023/04/16 04:21:27;;;;;;;;;;;9.80;99.90;;;;;;7331417;19;108810;-63
2023/04/16 04:23:54;;;;;;;;;;;9.80;99.90;;;;;;7333378;19;109347;-63
2023/04/16 04:26:21;;;;;;;;;;;9.90;99.90;;;;;;7327450;19;109977;-63
2023/04/16 04:28:48;;;;;;;;;;;9.90;99.90;;;;;;7332461;19;109115;-63
2023/04/16 04:31:15;;;;;;;;;;;9.90;99.90;;;;;;7336535;19;109531;-63
2023/04/16 04:33:43;;;;;;;;;;;9.90;99.90;;;;;;7333632;19;108843;-64
2023/04/16 04:36:10;;;;;;;;;;;9.90;99.90;;;;;;7334591;19;110954;-63
2023/04/16 04:38:37;;;;;;;;;;;9.80;99.90;;;;;;7339794;19;109198;-63
2023/04/16 04:41:04;;;;;;;;;;;9.90;99.90;;;;;;7335942;19;109387;-63
2023/04/16 04:43:31;;;;;;;;;;;9.90;99.90;;;;;;7339017;19;108964;-63
2023/04/16 04:45:58;;;;;;;;;;;9.90;99.90;;;;;;7338594;19;109612;-63
2023/04/16 04:48:26;;;;;;;;;;;9.90;99.90;;;;;;7340869;19;108441;-64
2023/04/16 04:50:53;;;;;;;;;;;9.90;99.90;;;;;;7336314;19;109310;-63
2023/04/16 04:53:20;;;;;;;;;;;9.90;99.90;;;;;;7345438;19;109169;-63
2023/04/16 04:55:47;;;;;;;;;;;9.80;99.90;;;;;;7335429;19;109431;-63
2023/04/16 04:58:19;;;;;;;;;;;9.80;99.90;;;;;;7338391;19;109255;-63
2023/04/16 05:00:46;;;;;;;;;;;9.70;99.90;;;;;;7334402;19;109195;-63
2023/04/16 05:03:18;;;;;;;;;;;9.80;99.90;;;;;;7338143;19;108498;-64
2023/04/16 05:05:45;;;;;;;;;;;9.80;99.90;;;;;;7336702;19;110139;-63
2023/04/16 05:08:12;;;;;;;;;;;9.80;99.90;;;;;;7339936;19;110043;-63
2023/04/16 05:10:39;;;;;;;;;;;9.80;99.90;;;;;;7337712;19;109354;-63
2023/04/16 05:13:06;;;;;;;;;;;9.70;99.90;;;;;;7338006;19;109381;-70
2023/04/16 05:15:34;;;;;;;;;;;9.70;99.90;;;;;;7340670;19;109719;-63
2023/04/16 05:18:01;;;;;;;;;;;9.70;99.90;;;;;;7337251;19;112279;-63
2023/04/16 05:20:28;;;;;;;;;;;9.80;99.90;;;;;;7334473;19;109337;-63
2023/04/16 05:22:55;;;;;;;;;;;9.80;99.90;;;;;;7340670;19;109090;-64
2023/04/16 05:25:22;;;;;;;;;;;9.70;99.90;;;;;;7337925;19;110543;-63
2023/04/16 05:27:50;;;;;;;;;;;9.70;99.90;;;;;;7337344;19;109709;-64
2023/04/16 05:30:17;;;;;;;;;;;9.70;99.90;;;;;;7335433;19;109693;-64
2023/04/16 05:32:44;;;;;;;;;;;9.70;99.90;;;;;;7336312;19;109516;-63
2023/04/16 05:35:11;;;;;;;;;;;9.70;99.90;;;;;;7344397;19;108367;-63
2023/04/16 05:37:39;;;;;;;;;;;9.70;99.90;;;;;;7330663;19;109839;-63
2023/04/16 05:40:07;;;;;;;;;;;9.70;99.90;;;;;;7335914;19;109978;-63
2023/04/16 05:42:34;;;;;;;;;;;9.70;99.90;;;;;;7336293;19;109936;-62
2023/04/16 05:45:03;;;;;;;;;;;9.70;99.90;;;;;;7337325;19;109945;-63
2023/04/16 05:47:30;;;;;;;;;;;9.80;99.90;;;;;;7333779;19;108870;-63
2023/04/16 05:49:57;;;;;;;;;;;9.70;99.90;;;;;;7339319;19;108664;-63
2023/04/16 05:52:24;;;;;;;;;;;9.80;99.90;;;;;;7334877;19;110935;-63
2023/04/16 05:54:51;;;;;;;;;;;9.80;99.90;;;;;;7336462;19;109214;-63
2023/04/16 05:57:18;;;;;;;;;;;9.80;99.90;;;;;;7339741;19;110606;-65
2023/04/16 05:59:45;;;;;;;;;;;9.80;99.90;;;;;;7338108;19;110525;-63
2023/04/16 06:02:12;;;;;;;;;;;9.80;99.90;;;;;;7334220;19;110599;-63
2023/04/16 06:04:40;;;;;;;;;;;9.70;99.90;;;;;;7335813;19;109261;-63
2023/04/16 06:07:07;;;;;;;;;;;9.70;99.90;;;;;;7335109;19;110106;-63
2023/04/16 06:09:34;;;;;;;;;;;9.70;99.90;;;;;;7337405;19;109395;-63
2023/04/16 06:12:01;;;;;;;;;;;9.70;99.90;;;;;;7334384;19;110058;-63
2023/04/16 06:14:29;;;;;;;;;;;9.70;99.90;;;;;;7337875;19;108489;-63
2023/04/16 06:16:56;;;;;;;;;;;9.70;99.90;;;;;;7334283;19;110153;-63
2023/04/16 06:19:23;;;;;;;;;;;9.70;99.90;;;;;;7338391;19;114017;-63
2023/04/16 06:21:50;;;;;;;;;;;9.70;99.90;;;;;;7335780;19;108933;-70
2023/04/16 06:24:17;;;;;;;;;;;9.80;99.90;;;;;;7335931;19;109173;-71
2023/04/16 06:26:44;;;;;;;;;;;9.70;99.90;;;;;;7333178;19;110978;-73
2023/04/16 06:29:11;;;;;;;;;;;9.70;99.90;;;;;;7335027;19;109693;-73
2023/04/16 06:31:38;;;;;;;;;;;9.70;99.90;;;;;;7330192;19;110426;-66
2023/04/16 06:34:05;;;;;;;;;;;9.80;99.90;;;;;;7332933;19;108915;-63
2023/04/16 06:36:32;;;;;;;;;;;9.80;99.90;;;;;;7332174;19;108672;-63
2023/04/16 06:38:59;;;;;;;;;;;9.80;99.90;;;;;;7333779;19;110838;-63
2023/04/16 06:41:27;;;;;;;;;;;9.80;99.90;;;;;;7341148;19;108911;-63
2023/04/16 06:43:54;;;;;;;;;;;9.90;99.90;;;;;;7335469;19;109115;-63
2023/04/16 06:46:21;;;;;;;;;;;9.90;99.90;;;;;;7332350;19;109111;-63
2023/04/16 06:48:48;;;;;;;;;;;9.90;99.90;;;;;;7334557;19;108964;-63
2023/04/16 06:51:16;;;;;;;;;;;9.90;99.90;;;;;;7334860;19;109038;-63
2023/04/16 06:53:43;;;;;;;;;;;9.90;99.90;;;;;;7333150;19;108545;-64
2023/04/16 06:56:10;;;;;;;;;;;9.90;99.90;;;;;;7334370;19;110249;-64
2023/04/16 06:58:37;;;;;;;;;;;9.90;99.90;;;;;;7334282;19;109047;-65
2023/04/16 07:01:04;;;;;;;;;;;9.90;99.90;;;;;;7334080;19;108718;-63
2023/04/16 07:03:31;;;;;;;;;;;9.90;99.90;;;;;;7341895;19;108938;-64
2023/04/16 07:05:58;;;;;;;;;;;9.90;99.90;;;;;;7336456;19;109022;-64
2023/04/16 07:08:26;;;;;;;;;;;9.90;99.90;;;;;;7335100;19;108468;-64
2023/04/16 07:10:53;;;;;;;;;;;10.00;99.90;;;;;;7334383;19;113207;-63
2023/04/16 07:13:20;;;;;;;;;;;10.00;99.90;;;;;;7329329;19;110667;-65
2023/04/16 07:15:47;;;;;;;;;;;9.90;99.90;;;;;;7333473;19;108624;-63
2023/04/16 07:18:15;;;;;;;;;;;9.90;99.90;;;;;;7332287;19;109256;-64
2023/04/16 07:20:42;;;;;;;;;;;9.90;99.90;;;;;;7335799;19;108742;-64
2023/04/16 07:23:09;;;;;;;;;;;9.90;99.90;;;;;;7330508;19;109072;-64
2023/04/16 07:25:36;;;;;;;;;;;9.90;99.90;;;;;;7338820;19;109776;-63
2023/04/16 07:28:03;;;;;;;;;;;10.00;99.90;;;;;;7333294;19;113162;-63
2023/04/16 07:30:33;;;;;;;;;;;9.90;99.90;;;;;;7336710;19;109343;-70
2023/04/16 07:33:01;;;;;;;;;;;9.90;99.90;;;;;;7336481;19;108617;-64
2023/04/16 07:35:29;;;;;;;;;;;9.80;99.90;;;;;;7335186;19;108384;-64
2023/04/16 07:37:56;;;;;;;;;;;9.90;99.90;;;;;;7334520;19;110863;-63
2023/04/16 07:40:23;;;;;;;;;;;9.90;99.90;;;;;;7333638;19;108946;-64
2023/04/16 07:42:50;;;;;;;;;;;9.90;99.90;;;;;;7332505;19;108964;-63
2023/04/16 07:45:17;;;;;;;;;;;10.00;99.90;;;;;;7340095;19;110470;-65
2023/04/16 07:47:45;;;;;;;;;;;10.00;99.90;;;;;;7334755;19;108716;-64
2023/04/16 07:50:12;;;;;;;;;;;10.00;99.90;;;;;;7334314;19;109736;-64
2023/04/16 07:52:41;;;;;;;;;;;10.00;99.90;;;;;;7333138;19;109498;-64
2023/04/16 07:55:08;;;;;;;;;;;10.00;99.90;;;;;;7332939;19;109423;-64
2023/04/16 07:57:35;;;;;;;;;;;10.00;99.90;;;;;;7328448;19;109117;-63
2023/04/16 08:00:06;;;;;;;;;;;9.90;99.90;;;;;;7332118;19;109568;-63
2023/04/16 08:02:33;;;;;;;;;;;10.00;99.90;;;;;;7331328;19;113781;-64
2023/04/16 08:05:01;;;;;;;;;;;10.00;99.90;;;;;;7334128;19;109588;-64
2023/04/16 08:07:28;;;;;;;;;;;10.00;99.90;;;;;;7336000;19;109035;-63
2023/04/16 08:09:55;;;;;;;;;;;10.00;99.90;;;;;;7338323;19;110379;-64
2023/04/16 08:12:22;;;;;;;;;;;10.10;99.90;;;;;;7336229;19;108976;-64
2023/04/16 08:14:50;;;;;;;;;;;10.10;99.90;;;;;;7337975;19;108967;-67
2023/04/16 08:17:17;;;;;;;;;;;10.10;99.90;;;;;;7338760;19;109236;-64
2023/04/16 08:19:45;;;;;;;;;;;10.10;99.90;;;;;;7337362;19;109814;-64
2023/04/16 08:22:12;;;;;;;;;;;10.20;99.90;;;;;;7339010;19;109231;-68
2023/04/16 08:24:39;;;;;;;;;;;10.20;99.90;;;;;;7339748;19;109829;-64
2023/04/16 08:27:06;;;;;;;;;;;10.20;99.90;;;;;;7337360;19;109983;-64
2023/04/16 08:29:44;;;;;;;;;;;10.20;99.90;;;;;;7342821;19;110400;-64
2023/04/16 08:32:11;;;;;;;;;;;10.30;99.90;;;;;;7340313;19;110126;-64
2023/04/16 08:34:38;;;;;;;;;;;10.30;99.90;;;;;;7338326;19;109380;-63
2023/04/16 08:37:05;;;;;;;;;;;10.20;99.90;;;;;;7334489;19;109842;-63
2023/04/16 08:39:32;;;;;;;;;;;10.20;99.90;;;;;;7337727;19;110807;-63
2023/04/16 08:42:04;;;;;;;;;;;10.20;99.90;;;;;;7339281;19;109816;-64
2023/04/16 08:44:33;;;;;;;;;;;10.20;99.90;;;;;;7338368;19;108887;-63
2023/04/16 08:47:00;;;;;;;;;;;10.30;99.90;;;;;;7338658;19;109496;-63
2023/04/16 08:49:28;;;;;;;;;;;10.30;99.90;;;;;;7337785;19;109545;-64
2023/04/16 08:51:56;;;;;;;;;;;10.30;99.90;;;;;;7343002;19;109915;-63
2023/04/16 08:54:31;;;;;;;;;;;10.30;99.90;;;;;;7337559;19;109084;-64
2023/04/16 08:57:01;;;;;;;;;;;10.30;99.90;;;;;;7338174;19;113145;-63
2023/04/16 08:59:28;;;;;;;;;;;10.30;99.90;;;;;;7335907;19;109027;-64
2023/04/16 09:01:57;;;;;;;;;;;10.20;99.90;;;;;;7338105;19;111011;-64
2023/04/16 09:04:27;;;;;;;;;;;10.20;99.90;;;;;;7337122;19;108901;-58
2023/04/16 09:06:58;;;;;;;;;;;10.30;99.90;;;;;;7339821;19;108858;-58
2023/04/16 09:09:25;;;;;;;;;;;10.30;99.90;;;;;;7342100;19;109036;-59
2023/04/16 09:11:52;;;;;;;;;;;10.40;99.90;;;;;;7336368;19;109146;-58
2023/04/16 09:14:20;;;;;;;;;;;10.50;99.90;;;;;;7342310;19;109253;-58
2023/04/16 09:16:48;;;;;;;;;;;10.60;99.90;;;;;;7336780;19;109245;-58
2023/04/16 09:19:15;;;;;;;;;;;10.60;99.90;;;;;;7340571;19;109863;-58
2023/04/16 09:21:44;;;;;;;;;;;10.70;99.90;;;;;;7336678;19;109216;-58
2023/04/16 09:24:11;;;;;;;;;;;10.70;99.90;;;;;;7338766;19;109276;-58
2023/04/16 09:26:40;;;;;;;;;;;10.80;99.90;;;;;;7338859;19;108561;-58
2023/04/16 09:29:08;;;;;;;;;;;10.80;99.90;;;;;;7338526;19;110413;-58
2023/04/16 09:31:35;;;;;;;;;;;10.80;99.90;;;;;;7336459;19;109205;-58
2023/04/16 09:34:04;;;;;;;;;;;10.80;99.90;;;;;;7338285;19;109047;-59
2023/04/16 09:36:31;;;;;;;;;;;10.80;99.90;;;;;;7342545;19;108440;-60
2023/04/16 09:38:59;;;;;;;;;;;10.80;99.90;;;;;;7339640;19;108298;-59
2023/04/16 09:41:27;;;;;;;;;;;10.80;99.90;;;;;;7336472;19;108613;-59
2023/04/16 09:43:56;;;;;;;;;;;10.80;99.90;;;;;;7335120;19;109401;-58
2023/04/16 09:46:24;;;;;;;;;;;10.90;99.90;;;;;;7336237;19;113514;-58
2023/04/16 09:48:51;;;;;;;;;;;10.80;99.90;;;;;;7334896;19;109069;-58
2023/04/16 09:51:18;;;;;;;;;;;10.90;99.90;;;;;;7336555;19;109102;-58
2023/04/16 09:53:45;;;;;;;;;;;10.90;99.90;;;;;;7336101;19;108683;-59
2023/04/16 09:56:12;;;;;;;;;;;10.90;99.90;;;;;;7340725;19;109291;-58
2023/04/16 09:58:40;;;;;;;;;;;10.90;99.90;;;;;;7336669;19;108497;-58
2023/04/16 10:01:08;;;;;;;;;;;10.90;99.90;;;;;;7334923;19;109624;-58
2023/04/16 10:03:37;;;;;;;;;;;10.90;99.90;;;;;;7332596;19;111625;-59
2023/04/16 10:06:15;;;;;;;;;;;11.00;99.90;;;;;;7336602;19;110234;-58
2023/04/16 10:08:52;;;;;;;;;;;11.00;99.90;;;;;;7336480;19;111130;-58
2023/04/16 10:11:20;;;;;;;;;;;11.00;99.90;;;;;;7338431;19;109130;-58
2023/04/16 10:13:47;;;;;;;;;;;11.00;99.90;;;;;;7338560;19;110443;-58
2023/04/16 10:16:14;;;;;;;;;;;11.10;99.90;;;;;;7334720;19;112127;-59
2023/04/16 10:18:42;;;;;;;;;;;11.00;99.90;;;;;;7342116;19;109522;-59
2023/04/16 10:21:14;;;;;;;;;;;11.10;99.90;;;;;;7336538;19;108391;-59
2023/04/16 10:23:41;;;;;;;;;;;11.10;99.90;;;;;;7336368;19;109350;-58
2023/04/16 10:26:08;;;;;;;;;;;11.00;99.90;;;;;;7335374;19;108451;-58
2023/04/16 10:28:36;;;;;;;;;;;11.00;99.90;;;;;;7337312;19;108752;-59
2023/04/16 10:31:06;;;;;;;;;;;11.00;99.90;;;;;;7336371;19;109114;-59
2023/04/16 10:33:38;;;;;;;;;;;11.10;99.90;;;;;;7332879;19;108794;-58
2023/04/16 10:36:22;;;;;;;;;;;11.10;99.90;;;;;;7333530;19;108542;-58
2023/04/16 10:38:51;;;;;;;;;;;11.10;99.90;;;;;;7335308;19;109547;-58
2023/04/16 10:41:18;;;;;;;;;;;11.10;99.90;;;;;;7341467;19;110988;-58
2023/04/16 10:43:47;;;;;;;;;;;11.10;99.90;;;;;;7335840;19;109133;-58
2023/04/16 10:46:22;;;;;;;;;;;11.20;99.90;;;;;;7336213;19;108959;-58
2023/04/16 10:48:51;;;;;;;;;;;11.20;99.90;;;;;;7327844;19;108862;-58
2023/04/16 10:51:26;;;;;;;;;;;11.20;99.90;;;;;;7335801;19;110235;-58
2023/04/16 10:53:54;;;;;;;;;;;11.30;99.90;;;;;;7333944;19;108508;-59
2023/04/16 10:56:25;;;;;;;;;;;11.30;99.90;;;;;;7334855;19;108718;-58
2023/04/16 10:58:56;;;;;;;;;;;11.30;99.90;;;;;;7331453;19;109065;-58
2023/04/16 11:01:33;;;;;;;;;;;11.40;99.90;;;;;;7333826;19;109271;-58
2023/04/16 11:04:20;;;;;;;;;;;11.40;99.90;;;;;;7339163;19;110722;-59
2023/04/16 11:07:01;;;;;;;;;;;11.40;99.90;;;;;;7332931;19;108476;-60
2023/04/16 11:09:48;;;;;;;;;;;11.50;99.90;;;;;;7335983;19;108845;-62
2023/04/16 11:12:17;;;;;;;;;;;11.50;99.90;;;;;;7332337;19;109841;-58
2023/04/16 11:14:51;;;;;;;;;;;11.50;99.90;;;;;;7334955;19;108934;-59
2023/04/16 11:17:19;;;;;;;;;;;11.60;99.90;;;;;;7333691;19;108832;-58
2023/04/16 11:19:46;;;;;;;;;;;11.50;99.90;;;;;;7332164;19;109528;-60
2023/04/16 11:22:16;;;;;;;;;;;11.50;99.90;;;;;;7334945;19;108814;-59
2023/04/16 11:24:43;;;;;;;;;;;11.60;99.90;;;;;;7332084;19;108739;-58
2023/04/16 11:27:12;;;;;;;;;;;11.50;99.90;;;;;;7340569;19;109827;-61
2023/04/16 11:29:39;;;;;;;;;;;11.60;99.90;;;;;;7333098;19;109417;-58
2023/04/16 11:32:06;;;;;;;;;;;11.70;99.90;;;;;;7333326;19;110692;-59
2023/04/16 11:34:33;;;;;;;;;;;11.60;99.90;;;;;;7333380;19;109480;-58
2023/04/16 11:37:00;;;;;;;;;;;11.70;99.90;;;;;;7327842;19;109476;-58
2023/04/16 11:39:27;;;;;;;;;;;11.70;99.90;;;;;;7315590;19;110942;-58
2023/04/16 11:41:54;;;;;;;;;;;11.60;99.90;;;;;;7334208;19;109735;-58
2023/04/16 11:44:23;;;;;;;;;;;11.70;99.90;;;;;;7340295;19;108558;-58
2023/04/16 11:46:51;;;;;;;;;;;11.80;99.90;;;;;;7346051;19;111424;-58
2023/04/16 11:49:28;;;;;;;;;;;11.70;99.90;;;;;;7353330;19;109022;-59
2023/04/16 11:51:55;;;;;;;;;;;11.80;99.90;;;;;;7349116;19;109942;-58
2023/04/16 11:54:23;;;;;;;;;;;11.80;99.90;;;;;;7342805;19;109366;-59
2023/04/16 11:56:51;;;;;;;;;;;11.70;99.90;;;;;;7346285;19;108754;-58
2023/04/16 11:59:22;;;;;;;;;;;11.70;99.90;;;;;;7343834;19;110182;-58
2023/04/16 12:01:50;;;;;;;;;;;11.70;99.90;;;;;;7348090;19;112209;-58
2023/04/16 12:04:19;;;;;;;;;;;11.80;99.90;;;;;;7343135;19;109065;-58
2023/04/16 12:07:06;;;;;;;;;;;11.80;99.90;;;;;;7347516;19;110537;-59
2023/04/16 12:09:35;;;;;;;;;;;11.90;99.90;;;;;;7353731;19;108443;-58
2023/04/16 12:12:26;;;;;;;;;;;11.90;99.90;;;;;;7344750;19;109871;-58
2023/04/16 12:14:55;;;;;;;;;;;11.90;99.90;;;;;;7346152;19;108441;-58
2023/04/16 12:17:22;;;;;;;;;;;11.90;99.90;;;;;;7348755;19;109217;-59
2023/04/16 12:20:00;;;;;;;;;;;11.90;99.90;;;;;;7344410;19;109310;-59
2023/04/16 12:22:28;;;;;;;;;;;11.90;99.90;;;;;;7349523;19;108358;-58
2023/04/16 12:24:57;;;;;;;;;;;11.80;99.90;;;;;;7344737;19;109421;-58
2023/04/16 12:27:27;;;;;;;;;;;11.90;99.90;;;;;;7347961;19;111605;-58
2023/04/16 12:30:04;;;;;;;;;;;11.90;99.90;;;;;;7344521;19;112793;-62
2023/04/16 12:32:31;;;;;;;;;;;11.90;99.90;;;;;;7341083;19;108653;-58
2023/04/16 12:34:58;;;;;;;;;;;12.00;99.90;;;;;;7331148;19;110291;-59
2023/04/16 12:37:26;;;;;;;;;;;12.00;99.90;;;;;;7338415;19;110456;-59
2023/04/16 12:39:53;;;;;;;;;;;12.00;99.90;;;;;;7338872;19;109594;-59
2023/04/16 12:42:20;;;;;;;;;;;12.00;99.90;;;;;;7335563;19;108488;-59
2023/04/16 12:44:47;;;;;;;;;;;11.90;99.90;;;;;;7338134;19;109593;-59
2023/04/16 12:47:14;;;;;;;;;;;12.00;99.90;;;;;;7338378;19;109551;-58
2023/04/16 12:49:41;;;;;;;;;;;11.90;99.90;;;;;;7343844;19;108883;-59
2023/04/16 12:52:08;;;;;;;;;;;11.90;99.90;;;;;;7347070;19;109254;-58
2023/04/16 12:54:35;;;;;;;;;;;12.00;99.90;;;;;;7348693;19;110060;-58
2023/04/16 12:57:02;;;;;;;;;;;12.00;99.90;;;;;;7339105;19;108210;-58
2023/04/16 12:59:29;;;;;;;;;;;12.00;99.90;;;;;;7336758;19;112369;-58
2023/04/16 13:01:56;;;;;;;;;;;12.10;99.90;;;;;;7339838;19;108489;-58
2023/04/16 13:04:23;;;;;;;;;;;12.00;99.90;;;;;;7338713;19;109628;-58
2023/04/16 13:06:52;;;;;;;;;;;12.00;99.90;;;;;;7340633;19;109283;-58
2023/04/16 13:09:19;;;;;;;;;;;12.00;99.90;;;;;;7339332;19;109541;-58
2023/04/16 13:11:47;;;;;;;;;;;12.00;99.90;;;;;;7339881;19;108962;-59
2023/04/16 13:14:14;;;;;;;;;;;12.00;99.90;;;;;;7338225;19;110226;-59
2023/04/16 13:16:41;;;;;;;;;;;12.00;99.90;;;;;;7344833;19;109660;-58
2023/04/16 13:19:08;;;;;;;;;;;12.10;99.90;;;;;;7337995;19;111621;-59
2023/04/16 13:21:35;;;;;;;;;;;12.00;99.90;;;;;;7340650;19;108494;-59
2023/04/16 13:24:03;;;;;;;;;;;12.00;99.90;;;;;;7339978;19;108552;-58
2023/04/16 13:26:30;;;;;;;;;;;12.10;99.90;;;;;;7338505;19;109497;-58
2023/04/16 13:28:57;;;;;;;;;;;12.10;99.90;;;;;;7338293;19;110189;-59
2023/04/16 13:31:24;;;;;;;;;;;12.10;99.90;;;;;;7337935;19;109025;-59
2023/04/16 13:33:51;;;;;;;;;;;12.00;99.90;;;;;;7338573;19;109777;-59
2023/04/16 13:36:18;;;;;;;;;;;12.00;99.90;;;;;;7340685;19;108800;-59
2023/04/16 13:38:45;;;;;;;;;;;12.00;99.90;;;;;;7342911;19;108731;-59
2023/04/16 13:41:12;;;;;;;;;;;12.00;99.90;;;;;;7336275;19;110502;-58
2023/04/16 13:43:39;;;;;;;;;;;12.10;99.90;;;;;;7338622;19;108544;-59
2023/04/16 13:46:06;;;;;;;;;;;12.10;99.90;;;;;;7336803;19;109657;-59
2023/04/16 13:48:34;;;;;;;;;;;12.00;99.90;;;;;;7339468;19;108353;-58
2023/04/16 13:51:01;;;;;;;;;;;12.10;99.90;;;;;;7338672;19;111210;-58
2023/04/16 13:53:28;;;;;;;;;;;12.10;99.90;;;;;;7338500;19;110256;-58
2023/04/16 13:55:55;;;;;;;;;;;12.10;99.90;;;;;;7337462;19;109331;-59
2023/04/16 13:58:22;;;;;;;;;;;12.00;99.90;;;;;;7341811;19;108331;-58
2023/04/16 14:00:50;;;;;;;;;;;12.00;99.90;;;;;;7335653;19;109760;-59
2023/04/16 14:03:17;;;;;;;;;;;12.10;99.90;;;;;;7337737;19;110142;-59
2023/04/16 14:05:44;;;;;;;;;;;12.10;99.90;;;;;;7337016;19;114354;-59
2023/04/16 14:08:13;;;;;;;;;;;12.10;99.90;;;;;;7338525;19;109020;-59
2023/04/16 14:10:40;;;;;;;;;;;12.10;99.90;;;;;;7334975;19;109606;-59
2023/04/16 14:13:07;;;;;;;;;;;12.10;99.90;;;;;;7339771;19;109747;-59